createdAt,value
2018-11-03T00:00:54.008Z,27.50
2018-11-03T00:03:23.069Z,21.50
2018-11-03T00:05:52.097Z,25.00
2018-11-03T00:08:22.123Z,24.00
2018-11-03T00:11:07.959Z,26.00
2018-11-03T00:13:37.022Z,24.50
2018-11-03T00:16:06.265Z,24.00
2018-11-03T00:18:36.358Z,24.00
2018-11-03T00:21:05.478Z,22.50
2018-11-03T00:23:34.514Z,28.00
2018-11-03T00:26:03.545Z,26.00
2018-11-03T00:28:32.568Z,22.00
2018-11-03T00:31:01.627Z,25.50
2018-11-03T00:33:30.687Z,23.50
2018-11-03T00:35:59.763Z,22.00
2018-11-03T00:38:28.816Z,24.00
2018-11-03T00:40:57.870Z,21.00
2018-11-03T00:43:26.915Z,24.00
2018-11-03T00:45:55.943Z,23.00
2018-11-03T00:48:24.996Z,22.00
2018-11-03T00:50:54.045Z,26.00
2018-11-03T00:53:23.087Z,25.50
2018-11-03T00:55:52.115Z,19.00
2018-11-03T00:58:21.157Z,26.00
2018-11-03T01:00:50.185Z,21.00
2018-11-03T01:03:19.231Z,23.50
2018-11-03T01:05:48.283Z,21.00
2018-11-03T01:08:17.321Z,23.50
2018-11-03T01:10:46.385Z,16.50
2018-11-03T01:13:15.459Z,18.50
2018-11-03T01:15:44.478Z,19.50
2018-11-03T01:18:13.502Z,24.00
2018-11-03T01:20:42.535Z,21.00
2018-11-03T01:23:11.573Z,22.50
2018-11-03T01:25:40.630Z,18.00
2018-11-03T01:28:09.677Z,23.00
2018-11-03T01:30:38.728Z,20.00
2018-11-03T01:33:07.785Z,17.50
2018-11-03T01:35:36.812Z,23.00
2018-11-03T01:38:05.997Z,20.50
2018-11-03T01:40:35.043Z,20.00
2018-11-03T01:43:04.083Z,21.50
2018-11-03T01:45:33.125Z,14.00
2018-11-03T01:48:02.191Z,16.00
2018-11-03T01:51:22.164Z,26.00
2018-11-03T01:53:51.180Z,22.25
2018-11-03T01:56:20.234Z,20.50
2018-11-03T01:58:49.314Z,26.00
2018-11-03T02:01:19.267Z,21.00
2018-11-03T02:03:48.330Z,20.50
2018-11-03T02:06:17.349Z,16.00
2018-11-03T02:08:46.395Z,21.50
2018-11-03T02:11:15.456Z,23.00
2018-11-03T02:13:44.507Z,18.00
2018-11-03T02:16:13.551Z,20.50
2018-11-03T02:18:42.704Z,21.00
2018-11-03T02:21:11.795Z,20.50
2018-11-03T02:23:40.814Z,22.00
2018-11-03T02:26:09.963Z,18.00
2018-11-03T02:28:39.006Z,22.00
2018-11-03T02:31:08.074Z,19.00
2018-11-03T02:33:37.123Z,20.50
2018-11-03T02:36:06.179Z,20.00
2018-11-03T02:38:35.239Z,20.50
2018-11-03T02:41:04.286Z,18.00
2018-11-03T02:43:33.347Z,19.00
2018-11-03T02:46:02.375Z,19.50
2018-11-03T02:48:31.434Z,23.00
2018-11-03T02:51:00.460Z,18.00
2018-11-03T02:53:29.522Z,19.00
2018-11-03T02:55:58.577Z,20.00
2018-11-03T02:58:27.638Z,18.00
2018-11-03T03:00:56.686Z,16.50
2018-11-03T03:03:25.757Z,18.00
2018-11-03T03:05:54.803Z,22.50
2018-11-03T03:08:23.850Z,18.00
2018-11-03T03:10:52.919Z,20.00
2018-11-03T03:13:21.957Z,20.50
2018-11-03T03:15:51.016Z,20.50
2018-11-03T03:18:20.083Z,21.00
2018-11-03T03:20:49.119Z,17.50
2018-11-03T03:23:18.183Z,21.50
2018-11-03T03:25:47.239Z,18.50
2018-11-03T03:28:16.284Z,18.50
2018-11-03T03:30:45.413Z,17.50
2018-11-03T03:33:14.719Z,22.00
2018-11-03T03:35:43.842Z,21.00
2018-11-03T03:38:12.918Z,23.50
2018-11-03T03:40:41.978Z,23.50
2018-11-03T03:43:11.039Z,21.00
2018-11-03T03:45:40.085Z,22.00
2018-11-03T03:48:09.113Z,21.50
2018-11-03T03:50:38.175Z,19.00
2018-11-03T03:53:07.402Z,20.50
2018-11-03T03:55:36.479Z,20.00
2018-11-03T03:58:05.887Z,19.00
2018-11-03T04:00:34.912Z,24.50
2018-11-03T04:03:03.959Z,20.00
2018-11-03T04:05:33.053Z,21.50
2018-11-03T04:08:02.110Z,18.00
2018-11-03T04:10:31.169Z,14.00
2018-11-03T04:13:05.684Z,16.00
2018-11-03T04:15:34.826Z,16.00
2018-11-03T04:18:03.903Z,14.00
2018-11-03T04:20:32.982Z,19.00
2018-11-03T04:23:02.051Z,20.00
2018-11-03T04:25:31.130Z,23.00
2018-11-03T04:28:00.243Z,22.00
2018-11-03T04:30:29.309Z,16.50
2018-11-03T04:32:58.401Z,17.00
2018-11-03T04:35:27.507Z,21.00
2018-11-03T04:37:56.624Z,17.00
2018-11-03T04:40:25.671Z,27.50
2018-11-03T04:42:54.729Z,20.00
2018-11-03T04:45:23.848Z,23.50
2018-11-03T04:47:52.835Z,21.00
2018-11-03T04:50:21.897Z,22.00
2018-11-03T04:52:51.033Z,24.00
2018-11-03T04:55:20.074Z,20.50
2018-11-03T04:57:49.058Z,16.00
2018-11-03T05:00:18.179Z,19.00
2018-11-03T05:02:47.299Z,20.50
2018-11-03T05:05:16.358Z,26.50
2018-11-03T05:07:45.410Z,22.00
2018-11-03T05:10:14.485Z,19.50
2018-11-03T05:12:43.472Z,23.50
2018-11-03T05:15:12.568Z,21.50
2018-11-03T05:17:41.599Z,21.00
2018-11-03T05:20:10.656Z,25.00
2018-11-03T05:22:39.774Z,23.00
2018-11-03T05:25:08.861Z,17.00
2018-11-03T05:27:37.903Z,20.50
2018-11-03T05:30:07.428Z,22.00
2018-11-03T05:32:36.747Z,16.00
2018-11-03T05:35:06.231Z,22.50
2018-11-03T05:37:35.286Z,19.50
2018-11-03T05:40:04.368Z,21.00
2018-11-03T05:42:33.407Z,18.50
2018-11-03T05:45:02.438Z,22.00
2018-11-03T05:47:31.560Z,24.00
2018-11-03T05:50:00.650Z,23.00
2018-11-03T05:52:29.666Z,18.50
2018-11-03T05:54:58.709Z,19.00
2018-11-03T05:57:27.784Z,25.00
2018-11-03T05:59:56.850Z,24.00
2018-11-03T06:02:25.873Z,28.00
2018-11-03T06:04:54.916Z,28.50
2018-11-03T06:07:24.219Z,26.50
2018-11-03T06:09:53.262Z,23.50
2018-11-03T06:12:22.287Z,28.50
2018-11-03T06:14:51.326Z,30.00
2018-11-03T06:17:20.391Z,27.00
2018-11-03T06:19:49.418Z,24.50
2018-11-03T06:22:18.552Z,27.00
2018-11-03T06:24:47.518Z,22.50
2018-11-03T06:27:17.927Z,26.00
2018-11-03T06:29:46.939Z,24.00
2018-11-03T06:32:15.990Z,30.00
2018-11-03T06:34:45.059Z,27.50
2018-11-03T06:37:14.110Z,29.00
2018-11-03T06:39:43.206Z,32.50
2018-11-03T06:42:12.260Z,27.50
2018-11-03T06:44:41.276Z,24.00
2018-11-03T06:47:10.365Z,34.50
2018-11-03T06:49:39.429Z,24.50
2018-11-03T06:52:08.500Z,31.50
2018-11-03T06:54:37.554Z,35.50
2018-11-03T06:57:06.702Z,33.00
2018-11-03T06:59:35.929Z,28.00
2018-11-03T07:02:05.134Z,33.50
2018-11-03T07:04:34.194Z,35.50
2018-11-03T07:07:03.369Z,30.50
2018-11-03T07:09:32.407Z,31.00
2018-11-03T07:12:02.520Z,37.00
2018-11-03T07:14:31.518Z,34.50
2018-11-03T07:17:00.578Z,35.50
2018-11-03T07:19:29.633Z,32.50
2018-11-03T07:21:58.750Z,35.50
2018-11-03T07:24:27.818Z,36.00
2018-11-03T07:26:56.883Z,41.00
2018-11-03T07:29:26.233Z,33.50
2018-11-03T07:31:55.995Z,37.50
2018-11-03T07:34:25.110Z,38.50
2018-11-03T07:36:54.186Z,39.00
2018-11-03T07:39:23.259Z,36.00
2018-11-03T07:41:52.347Z,37.50
2018-11-03T07:44:21.398Z,40.00
2018-11-03T07:46:50.471Z,42.50
2018-11-03T07:49:22.250Z,51.50
2018-11-03T07:51:53.793Z,46.50
2018-11-03T07:54:28.520Z,44.00
2018-11-03T07:57:01.104Z,40.50
2018-11-03T07:59:40.199Z,40.00
2018-11-03T08:02:09.439Z,42.00
2018-11-03T08:04:45.621Z,41.50
2018-11-03T08:07:19.451Z,50.00
2018-11-03T08:09:48.499Z,51.00
2018-11-03T08:12:17.555Z,54.00
2018-11-03T08:14:46.608Z,47.50
2018-11-03T08:17:17.036Z,48.00
2018-11-03T08:19:46.072Z,53.50
2018-11-03T08:22:15.693Z,49.00
2018-11-03T08:24:44.756Z,55.00
2018-11-03T08:27:13.806Z,53.50
2018-11-03T08:29:43.880Z,54.00
2018-11-03T08:32:14.334Z,53.50
2018-11-03T08:34:43.728Z,50.00
2018-11-03T08:37:12.872Z,54.50
2018-11-03T08:39:41.917Z,55.00
2018-11-03T08:42:10.972Z,54.00
2018-11-03T08:44:40.027Z,55.00
2018-11-03T08:47:09.137Z,58.50
2018-11-03T08:49:39.345Z,55.00
2018-11-03T08:52:08.436Z,59.50
2018-11-03T08:54:37.520Z,53.00
2018-11-03T08:57:06.650Z,57.00
2018-11-03T08:59:35.791Z,62.00
2018-11-03T09:02:05.326Z,53.00
2018-11-03T09:04:34.466Z,66.00
2018-11-03T09:07:03.613Z,59.00
2018-11-03T09:09:32.839Z,59.50
2018-11-03T09:12:01.928Z,58.50
2018-11-03T09:14:31.052Z,61.50
2018-11-03T09:17:04.595Z,60.00
2018-11-03T09:19:36.281Z,63.00
2018-11-03T09:22:05.425Z,61.50
2018-11-03T09:24:34.479Z,63.00
2018-11-03T09:27:03.591Z,63.00
2018-11-03T09:29:32.654Z,63.00
2018-11-03T09:32:01.835Z,64.50
2018-11-03T09:34:30.787Z,60.50
2018-11-03T09:36:59.836Z,60.75
2018-11-03T09:39:29.591Z,61.00
2018-11-03T09:41:58.866Z,54.50
2018-11-03T09:44:28.682Z,63.25
2018-11-03T09:46:57.947Z,57.00
2018-11-03T09:49:27.021Z,61.75
2018-11-03T09:51:56.055Z,62.75
2018-11-03T09:54:25.111Z,57.25
2018-11-03T09:56:54.155Z,59.25
2018-11-03T09:59:23.251Z,57.75
2018-11-03T10:01:52.299Z,60.00
2018-11-03T10:04:21.400Z,56.75
2018-11-03T10:06:50.411Z,58.75
2018-11-03T10:09:19.452Z,59.00
2018-11-03T10:11:49.652Z,58.50
2018-11-03T10:14:18.670Z,56.75
2018-11-03T10:16:47.926Z,61.00
2018-11-03T10:19:17.488Z,59.50
2018-11-03T10:21:46.566Z,59.75
2018-11-03T10:24:15.646Z,59.00
2018-11-03T10:26:44.722Z,61.25
2018-11-03T10:29:13.801Z,59.00
2018-11-03T10:31:42.902Z,60.25
2018-11-03T10:34:12.115Z,61.25
2018-11-03T10:36:41.211Z,61.75
2018-11-03T10:39:11.755Z,61.75
2018-11-03T10:41:41.717Z,61.50
2018-11-03T10:44:11.110Z,60.25
2018-11-03T10:46:40.234Z,65.75
2018-11-03T10:49:09.273Z,63.00
2018-11-03T10:51:38.317Z,61.25
2018-11-03T10:54:07.663Z,59.75
2018-11-03T10:56:36.714Z,62.75
2018-11-03T10:59:05.767Z,68.00
2018-11-03T11:01:40.025Z,67.00
2018-11-03T11:04:14.945Z,62.00
2018-11-03T11:06:49.259Z,63.50
2018-11-03T11:09:23.610Z,63.75
2018-11-03T11:11:58.857Z,63.50
2018-11-03T11:14:27.898Z,66.00
2018-11-03T11:16:57.020Z,62.00
2018-11-03T11:19:26.018Z,67.50
2018-11-03T11:21:56.535Z,71.00
2018-11-03T11:24:25.636Z,65.50
2018-11-03T11:26:54.599Z,65.75
2018-11-03T11:29:23.706Z,64.25
2018-11-03T11:31:54.683Z,63.00
2018-11-03T11:34:23.747Z,70.25
2018-11-03T11:36:53.216Z,66.00
2018-11-03T11:39:22.300Z,65.50
2018-11-03T11:41:51.351Z,69.75
2018-11-03T11:44:21.107Z,65.00
2018-11-03T11:46:50.231Z,63.50
2018-11-03T11:49:19.362Z,64.25
2018-11-03T11:54:40.837Z,65.75
2018-11-03T11:57:10.400Z,61.25
2018-11-03T11:59:39.463Z,66.25
2018-11-03T12:02:10.719Z,56.25
2018-11-03T12:04:40.444Z,54.50
2018-11-03T12:07:09.666Z,60.00
2018-11-03T12:09:39.086Z,61.50
2018-11-03T12:12:08.320Z,64.75
2018-11-03T12:14:37.455Z,60.50
2018-11-03T12:17:07.134Z,56.75
2018-11-03T12:19:36.273Z,60.75
2018-11-03T12:22:05.671Z,62.00
2018-11-03T12:24:49.968Z,58.00
2018-11-03T12:27:19.233Z,56.75
2018-11-03T12:29:49.041Z,57.00
2018-11-03T12:32:24.729Z,59.50
2018-11-03T12:34:54.314Z,58.25
2018-11-03T12:37:23.480Z,59.00
2018-11-03T12:39:52.685Z,54.50
2018-11-03T12:42:22.057Z,60.00
2018-11-03T12:44:51.144Z,57.50
2018-11-03T12:47:20.284Z,55.25
2018-11-03T12:49:49.397Z,53.75
2018-11-03T12:52:18.514Z,54.50
2018-11-03T12:54:47.917Z,51.50
2018-11-03T12:57:17.090Z,48.75
2018-11-03T12:59:46.173Z,54.00
2018-11-03T13:02:15.305Z,53.50
2018-11-03T13:04:44.444Z,50.00
2018-11-03T13:07:13.646Z,53.25
2018-11-03T13:09:42.990Z,47.75
2018-11-03T13:12:12.066Z,49.75
2018-11-03T13:14:41.483Z,49.50
2018-11-03T13:17:10.543Z,49.00
2018-11-03T13:19:39.652Z,47.25
2018-11-03T13:22:08.914Z,44.75
2018-11-03T13:24:39.012Z,47.00
2018-11-03T13:27:08.353Z,43.00
2018-11-03T13:29:37.425Z,44.00
2018-11-03T13:32:06.667Z,47.00
2018-11-03T13:34:35.715Z,49.00
2018-11-03T13:37:04.870Z,46.75
2018-11-03T13:39:34.106Z,41.75
2018-11-03T13:42:03.215Z,47.00
2018-11-03T13:44:32.270Z,39.50
2018-11-03T13:47:01.497Z,45.00
2018-11-03T13:49:30.583Z,44.50
2018-11-03T13:51:59.959Z,49.50
2018-11-03T13:54:29.029Z,46.75
2018-11-03T13:56:58.137Z,43.75
2018-11-03T13:59:27.220Z,49.50
2018-11-03T14:01:56.389Z,47.25
2018-11-03T14:04:25.580Z,45.25
2018-11-03T14:06:55.462Z,44.00
2018-11-03T14:09:24.582Z,47.00
2018-11-03T14:11:55.352Z,44.25
2018-11-03T14:14:25.147Z,42.75
2018-11-03T14:16:54.938Z,39.00
2018-11-03T14:19:24.538Z,48.00
2018-11-03T14:21:53.735Z,39.00
2018-11-03T14:24:23.167Z,43.00
2018-11-03T14:26:52.289Z,40.50
2018-11-03T14:29:21.410Z,44.00
2018-11-03T14:31:50.960Z,42.25
2018-11-03T14:34:20.155Z,44.25
2018-11-03T14:36:50.099Z,45.00
2018-11-03T14:39:19.187Z,40.50
2018-11-03T14:41:48.307Z,45.75
2018-11-03T14:44:17.483Z,46.75
2018-11-03T14:46:46.596Z,40.75
2018-11-03T14:49:15.926Z,45.25
2018-11-03T14:51:45.133Z,51.50
2018-11-03T14:54:15.261Z,45.50
2018-11-03T14:56:44.515Z,43.25
2018-11-03T14:59:13.963Z,38.75
2018-11-03T15:01:43.761Z,40.00
2018-11-03T15:04:14.011Z,39.00
2018-11-03T15:06:43.988Z,42.75
2018-11-03T15:09:18.012Z,40.75
2018-11-03T15:11:47.135Z,46.75
2018-11-03T15:14:18.872Z,41.50
2018-11-03T15:16:48.357Z,41.50
2018-11-03T15:19:20.972Z,44.25
2018-11-03T15:21:50.272Z,42.50
2018-11-03T15:24:20.298Z,44.00
2018-11-03T15:26:49.379Z,44.00
2018-11-03T15:29:18.545Z,41.00
2018-11-03T15:31:47.709Z,45.75
2018-11-03T15:34:16.940Z,48.25
2018-11-03T15:36:46.039Z,47.25
2018-11-03T15:39:15.147Z,49.00
2018-11-03T15:41:44.366Z,42.25
2018-11-03T15:44:13.519Z,49.50
2018-11-03T15:46:43.149Z,45.75
2018-11-03T15:49:12.379Z,49.50
2018-11-03T15:51:42.020Z,51.00
2018-11-03T15:54:11.822Z,52.25
2018-11-03T15:56:40.983Z,50.25
2018-11-03T15:59:10.142Z,53.00
2018-11-03T16:01:39.314Z,52.25
2018-11-03T16:04:08.482Z,51.00
2018-11-03T16:06:37.702Z,48.50
2018-11-03T16:09:09.611Z,47.50
2018-11-03T16:11:39.152Z,48.50
2018-11-03T16:14:08.801Z,54.50
2018-11-03T16:16:38.845Z,49.00
2018-11-03T16:19:08.661Z,54.00
2018-11-03T16:21:37.863Z,54.75
2018-11-03T16:24:09.754Z,55.50
2018-11-03T16:26:38.951Z,51.25
2018-11-03T16:29:08.010Z,52.25
2018-11-03T16:31:37.015Z,49.75
2018-11-03T16:34:06.160Z,51.25
2018-11-03T16:36:35.209Z,48.00
2018-11-03T16:39:05.359Z,51.75
2018-11-03T16:41:34.896Z,53.50
2018-11-03T16:44:04.779Z,46.25
2018-11-03T16:46:33.879Z,52.00
2018-11-03T16:49:02.938Z,50.00
2018-11-03T16:51:31.993Z,50.25
2018-11-03T16:54:01.047Z,56.75
2018-11-03T16:56:30.467Z,52.00
2018-11-03T16:58:59.567Z,59.25
2018-11-03T17:01:28.657Z,59.25
2018-11-03T17:03:58.404Z,63.75
2018-11-03T17:06:27.550Z,57.50
2018-11-03T17:08:56.631Z,60.50
2018-11-03T17:11:25.692Z,62.75
2018-11-03T17:13:54.752Z,63.75
2018-11-03T17:16:23.878Z,60.50
2018-11-03T17:18:53.089Z,66.75
2018-11-03T17:21:22.002Z,68.75
2018-11-03T17:23:51.068Z,64.25
2018-11-03T17:26:20.148Z,68.25
2018-11-03T17:28:49.262Z,69.50
2018-11-03T17:31:18.381Z,69.75
2018-11-03T17:33:48.397Z,64.00
2018-11-03T17:36:17.697Z,66.75
2018-11-03T17:38:46.753Z,68.75
2018-11-03T17:41:17.322Z,67.50
2018-11-03T17:43:46.896Z,68.50
2018-11-03T17:50:11.323Z,61.25
2018-11-03T18:03:13.423Z,55.00
2018-11-03T18:13:48.079Z,64.00
2018-11-03T18:16:39.702Z,64.75
2018-11-03T18:19:08.834Z,65.75
2018-11-03T18:21:48.984Z,69.00
2018-11-03T18:24:34.498Z,69.00
2018-11-03T18:27:14.411Z,62.75
2018-11-03T18:30:02.208Z,68.25
2018-11-03T18:38:58.925Z,55.50
2018-11-03T18:41:40.309Z,62.25
2018-11-03T18:44:27.027Z,62.00
2018-11-03T18:47:06.042Z,65.25
2018-11-03T18:49:38.191Z,59.75
2018-11-03T18:54:51.247Z,61.75
2018-11-03T18:57:33.993Z,64.25
2018-11-03T19:00:35.062Z,59.75
2018-11-03T19:03:16.302Z,53.00
2018-11-03T19:06:02.554Z,59.50
2018-11-03T19:11:32.207Z,62.50
2018-11-03T19:14:04.847Z,60.50
2018-11-03T19:16:59.942Z,60.00
2018-11-03T19:19:35.466Z,63.00
2018-11-03T19:22:04.646Z,59.00
2018-11-03T19:24:36.187Z,64.00
2018-11-03T19:27:08.234Z,61.00
2018-11-03T19:29:37.330Z,64.50
2018-11-03T19:32:06.973Z,62.00
2018-11-03T19:34:35.979Z,64.00
2018-11-03T19:37:05.080Z,66.50
2018-11-03T19:39:34.163Z,64.00
2018-11-03T19:42:03.266Z,60.00
2018-11-03T19:44:32.346Z,70.50
2018-11-03T19:47:01.773Z,76.00
2018-11-03T19:49:30.879Z,80.00
2018-11-03T19:51:59.943Z,70.00
2018-11-03T19:54:29.022Z,66.00
2018-11-03T19:56:58.059Z,81.00
2018-11-03T19:59:27.467Z,81.00
2018-11-03T20:01:57.361Z,79.50
2018-11-03T20:04:27.005Z,82.00
2018-11-03T20:06:56.068Z,78.00
2018-11-03T20:09:25.142Z,85.00
2018-11-03T20:11:54.231Z,72.00
2018-11-03T20:14:23.333Z,72.00
2018-11-03T20:16:54.109Z,75.00
2018-11-03T20:19:23.151Z,67.50
2018-11-03T20:21:52.265Z,74.50
2018-11-03T20:24:21.552Z,70.00
2018-11-03T20:27:00.653Z,67.50
2018-11-03T20:29:29.707Z,69.50
2018-11-03T20:31:58.950Z,65.00
2018-11-03T20:37:12.474Z,64.00
2018-11-03T20:39:41.476Z,60.50
2018-11-03T20:42:10.558Z,63.50
2018-11-03T20:44:39.615Z,68.00
2018-11-03T20:47:08.675Z,64.00
2018-11-03T20:49:38.043Z,64.50
2018-11-03T20:52:07.146Z,64.50
2018-11-03T20:54:36.179Z,60.00
2018-11-03T20:57:05.331Z,64.00
2018-11-03T20:59:34.396Z,65.00
2018-11-03T21:02:04.435Z,58.50
2018-11-03T21:04:33.456Z,62.00
2018-11-03T21:07:02.697Z,66.00
2018-11-03T21:09:31.756Z,63.00
2018-11-03T21:12:00.896Z,66.00
2018-11-03T21:14:29.961Z,65.50
2018-11-03T21:16:59.017Z,66.00
2018-11-03T21:19:29.183Z,65.50
2018-11-03T21:21:58.230Z,64.50
2018-11-03T21:24:27.278Z,70.00
2018-11-03T21:27:28.737Z,68.00
2018-11-03T21:29:57.858Z,75.00
2018-11-03T21:32:26.928Z,70.50
2018-11-03T21:34:55.992Z,70.00
2018-11-03T21:37:25.045Z,65.50
2018-11-03T21:39:54.498Z,67.50
2018-11-03T21:42:23.531Z,62.00
2018-11-03T21:44:52.556Z,69.50
2018-11-03T21:47:24.109Z,66.00
2018-11-03T21:49:53.174Z,71.50
2018-11-03T21:52:22.250Z,69.50
2018-11-03T21:54:51.314Z,71.50
2018-11-03T21:57:20.359Z,61.50
2018-11-03T21:59:49.363Z,66.50
2018-11-03T22:02:18.405Z,69.50
2018-11-03T22:04:47.474Z,67.00
2018-11-03T22:07:16.934Z,61.50
2018-11-03T22:09:46.023Z,60.00
2018-11-03T22:12:15.051Z,64.00
2018-11-03T22:14:44.063Z,64.00
2018-11-03T22:17:13.110Z,57.50
2018-11-03T22:19:42.181Z,58.50
2018-11-03T22:22:11.242Z,60.50
2018-11-03T22:24:40.287Z,55.00
2018-11-03T22:27:10.265Z,49.50
2018-11-03T22:29:39.274Z,59.50
2018-11-03T22:32:08.291Z,50.50
2018-11-03T22:34:37.369Z,49.50
2018-11-03T22:37:06.417Z,51.50
2018-11-03T22:39:35.469Z,46.50
2018-11-03T22:42:04.686Z,47.50
2018-11-03T22:44:33.802Z,48.00
2018-11-03T22:47:02.963Z,54.00
2018-11-03T22:49:32.029Z,44.00
2018-11-03T22:52:01.808Z,47.50
2018-11-03T22:54:31.399Z,48.50
2018-11-03T22:57:01.424Z,44.00
2018-11-03T22:59:30.456Z,44.00
2018-11-03T23:01:59.534Z,50.50
2018-11-03T23:04:28.567Z,52.50
2018-11-03T23:06:57.681Z,43.50
2018-11-03T23:09:26.702Z,52.50
2018-11-03T23:11:55.769Z,42.00
2018-11-03T23:14:25.441Z,46.00
2018-11-03T23:16:54.521Z,45.50
2018-11-03T23:19:23.604Z,47.00
2018-11-03T23:21:52.624Z,45.50
2018-11-03T23:24:21.665Z,43.50
2018-11-03T23:26:50.768Z,47.00
2018-11-03T23:29:19.813Z,37.50
2018-11-03T23:31:48.834Z,43.50
2018-11-03T23:34:17.931Z,44.00
2018-11-03T23:36:46.991Z,73.00
2018-11-03T23:39:16.054Z,65.00
2018-11-03T23:41:45.116Z,65.00
2018-11-03T23:44:14.790Z,66.00
2018-11-03T23:46:43.846Z,65.50
2018-11-03T23:49:13.322Z,56.50
2018-11-03T23:51:42.357Z,54.00
2018-11-03T23:54:11.479Z,51.50
2018-11-03T23:56:40.526Z,57.00
2018-11-03T23:59:09.564Z,48.50
